createdAt,value
2018-09-03T00:00:36.874Z,18.85
2018-09-03T00:03:14.221Z,18.88
2018-09-03T00:05:52.892Z,18.90
2018-09-03T00:08:30.496Z,18.91
2018-09-03T00:11:06.251Z,18.94
2018-09-03T00:13:44.277Z,18.98
2018-09-03T00:16:22.392Z,19.00
2018-09-03T00:19:03.818Z,19.02
2018-09-03T00:21:41.480Z,19.02
2018-09-03T00:24:18.140Z,19.03
2018-09-03T00:26:52.768Z,19.02
2018-09-03T00:29:30.380Z,19.05
2018-09-03T00:32:11.059Z,19.05
2018-09-03T00:34:54.662Z,19.07
2018-09-03T00:37:36.697Z,19.07
2018-09-03T00:40:19.291Z,19.08
2018-09-03T00:45:32.770Z,19.13
2018-09-03T00:48:02.135Z,19.14
2018-09-03T00:50:31.878Z,19.15
2018-09-03T00:53:01.365Z,19.16
2018-09-03T00:55:31.318Z,19.15
2018-09-03T00:58:00.986Z,19.16
2018-09-03T01:00:30.378Z,19.14
2018-09-03T01:02:59.745Z,19.13
2018-09-03T01:05:29.121Z,19.10
2018-09-03T01:07:58.469Z,19.09
2018-09-03T01:10:28.770Z,19.07
2018-09-03T01:12:58.211Z,19.08
2018-09-03T01:15:29.883Z,19.07
2018-09-03T01:18:01.310Z,19.09
2018-09-03T01:20:31.014Z,19.11
2018-09-03T01:23:00.550Z,19.11
2018-09-03T01:25:29.996Z,19.12
2018-09-03T01:27:59.297Z,19.12
2018-09-03T01:30:30.054Z,19.14
2018-09-03T01:32:59.419Z,19.13
2018-09-03T01:35:29.186Z,19.12
2018-09-03T01:37:58.583Z,19.08
2018-09-03T01:40:27.973Z,19.08
2018-09-03T01:42:58.228Z,19.07
2018-09-03T01:45:27.867Z,19.06
2018-09-03T01:47:58.454Z,19.05
2018-09-03T01:50:28.920Z,19.06
2018-09-03T01:52:58.267Z,19.06
2018-09-03T01:55:27.806Z,19.05
2018-09-03T01:57:57.314Z,19.07
2018-09-03T02:00:26.669Z,19.06
2018-09-03T02:02:57.298Z,19.06
2018-09-03T02:05:26.681Z,19.05
2018-09-03T02:07:56.284Z,19.05
2018-09-03T02:10:25.790Z,19.03
2018-09-03T02:12:55.125Z,19.03
2018-09-03T02:15:24.514Z,19.02
2018-09-03T02:17:57.917Z,19.01
2018-09-03T02:20:28.695Z,19.01
2018-09-03T02:22:58.222Z,19.01
2018-09-03T02:25:27.561Z,19.04
2018-09-03T02:27:56.906Z,19.05
2018-09-03T02:30:26.406Z,19.07
2018-09-03T02:32:59.686Z,19.07
2018-09-03T02:35:29.045Z,19.07
2018-09-03T02:37:58.493Z,19.08
2018-09-03T02:40:27.829Z,19.08
2018-09-03T02:42:57.201Z,19.09
2018-09-03T02:45:26.613Z,19.11
2018-09-03T02:47:56.024Z,19.11
2018-09-03T02:50:25.454Z,19.13
2018-09-03T02:52:54.853Z,19.00
2018-09-03T02:55:25.019Z,19.14
2018-09-03T02:57:54.536Z,19.14
2018-09-03T03:00:26.107Z,19.14
2018-09-03T03:02:58.068Z,19.15
2018-09-03T03:05:28.504Z,19.14
2018-09-03T03:07:58.422Z,19.15
2018-09-03T03:10:27.804Z,19.16
2018-09-03T03:12:57.188Z,19.17
2018-09-03T03:15:26.539Z,19.16
2018-09-03T03:17:55.912Z,19.18
2018-09-03T03:20:26.340Z,19.18
2018-09-03T03:22:55.702Z,19.20
2018-09-03T03:25:25.678Z,19.21
2018-09-03T03:27:55.110Z,19.21
2018-09-03T03:30:24.919Z,19.22
2018-09-03T03:32:54.295Z,19.23
2018-09-03T03:35:23.713Z,19.25
2018-09-03T03:37:53.074Z,19.25
2018-09-03T03:40:22.529Z,19.25
2018-09-03T03:42:51.903Z,19.26
2018-09-03T03:45:21.349Z,19.27
2018-09-03T03:47:50.673Z,19.27
2018-09-03T03:50:21.059Z,19.28
2018-09-03T03:52:50.537Z,19.27
2018-09-03T03:55:19.909Z,19.28
2018-09-03T03:57:49.258Z,19.28
2018-09-03T04:00:18.641Z,19.27
2018-09-03T04:02:47.973Z,19.26
2018-09-03T04:05:17.397Z,19.24
2018-09-03T04:07:46.790Z,19.24
2018-09-03T04:10:16.221Z,19.24
2018-09-03T04:12:50.973Z,19.22
2018-09-03T04:15:20.513Z,19.21
2018-09-03T04:17:50.059Z,19.21
2018-09-03T04:20:19.516Z,19.21
2018-09-03T04:22:48.984Z,19.20
2018-09-03T04:25:18.315Z,19.21
2018-09-03T04:27:47.748Z,19.20
2018-09-03T04:30:17.293Z,19.21
2018-09-03T04:32:46.829Z,19.21
2018-09-03T04:35:16.470Z,19.20
2018-09-03T04:37:45.881Z,19.19
2018-09-03T04:40:15.390Z,19.18
2018-09-03T04:42:44.798Z,19.17
2018-09-03T04:45:14.297Z,19.17
2018-09-03T04:47:43.725Z,19.18
2018-09-03T04:50:13.581Z,19.17
2018-09-03T04:52:42.964Z,19.17
2018-09-03T04:55:12.404Z,19.18
2018-09-03T04:57:41.758Z,19.17
2018-09-03T05:00:14.521Z,19.18
2018-09-03T05:02:45.198Z,19.14
2018-09-03T05:05:14.602Z,19.15
2018-09-03T05:07:44.850Z,19.09
2018-09-03T05:10:14.225Z,19.05
2018-09-03T05:12:43.658Z,19.01
2018-09-03T05:15:13.240Z,18.96
2018-09-03T05:17:43.212Z,18.95
2018-09-03T05:20:12.611Z,18.94
2018-09-03T05:22:41.997Z,18.93
2018-09-03T05:25:11.690Z,18.92
2018-09-03T05:27:41.719Z,18.92
2018-09-03T05:30:11.195Z,18.92
2018-09-03T05:32:41.167Z,18.93
2018-09-03T05:35:10.663Z,19.00
2018-09-03T05:37:40.328Z,19.07
2018-09-03T05:40:09.748Z,19.15
2018-09-03T05:42:39.273Z,19.23
2018-09-03T05:45:08.918Z,19.29
2018-09-03T05:47:38.358Z,19.36
2018-09-03T05:50:08.055Z,19.42
2018-09-03T05:52:37.530Z,19.48
2018-09-03T05:55:06.965Z,19.50
2018-09-03T05:57:36.377Z,19.58
2018-09-03T06:00:06.818Z,19.65
2018-09-03T06:02:36.181Z,19.72
2018-09-03T06:05:06.637Z,19.79
2018-09-03T06:07:36.146Z,19.88
2018-09-03T06:10:05.545Z,19.95
2018-09-03T06:12:34.946Z,20.02
2018-09-03T06:15:04.474Z,20.06
2018-09-03T06:17:34.004Z,20.06
2018-09-03T06:20:03.378Z,20.06
2018-09-03T06:22:33.472Z,20.05
2018-09-03T06:25:03.011Z,20.08
2018-09-03T06:27:32.462Z,20.09
2018-09-03T06:30:01.878Z,20.14
2018-09-03T06:32:31.405Z,20.18
2018-09-03T06:35:00.826Z,20.20
2018-09-03T06:37:30.231Z,20.21
2018-09-03T06:39:59.627Z,20.21
2018-09-03T06:42:31.958Z,20.24
2018-09-03T06:45:01.431Z,20.28
2018-09-03T06:47:30.885Z,20.35
2018-09-03T06:50:01.546Z,20.46
2018-09-03T06:52:31.040Z,20.58
2018-09-03T06:55:00.563Z,20.76
2018-09-03T06:57:29.977Z,20.97
2018-09-03T06:59:59.453Z,21.20
2018-09-03T07:02:28.868Z,21.38
2018-09-03T07:04:58.951Z,21.51
2018-09-03T07:07:29.116Z,21.55
2018-09-03T07:09:59.509Z,21.53
2018-09-03T07:12:29.201Z,21.53
2018-09-03T07:14:58.988Z,21.60
2018-09-03T07:17:28.384Z,21.61
2018-09-03T07:19:57.939Z,21.69
2018-09-03T07:22:27.397Z,21.76
2018-09-03T07:24:56.788Z,21.71
2018-09-03T07:27:26.200Z,21.64
2018-09-03T07:29:55.604Z,21.61
2018-09-03T07:32:25.211Z,21.67
2018-09-03T07:34:55.750Z,21.76
2018-09-03T07:37:25.186Z,21.85
2018-09-03T07:39:55.304Z,21.93
2018-09-03T07:42:24.686Z,21.98
2018-09-03T07:44:54.817Z,22.07
2018-09-03T07:47:24.946Z,22.23
2018-09-03T07:49:54.372Z,22.78
2018-09-03T07:52:24.042Z,22.81
2018-09-03T07:54:53.758Z,22.89
2018-09-03T07:57:23.438Z,22.87
2018-09-03T07:59:52.864Z,22.85
2018-09-03T08:02:22.263Z,22.89
2018-09-03T08:04:51.706Z,22.97
2018-09-03T08:07:21.225Z,23.13
2018-09-03T08:09:50.602Z,23.23
2018-09-03T08:12:19.983Z,23.33
2018-09-03T08:14:49.646Z,23.41
2018-09-03T08:17:19.036Z,23.46
2018-09-03T08:19:49.783Z,23.44
2018-09-03T08:22:19.172Z,23.44
2018-09-03T08:24:48.701Z,23.47
2018-09-03T08:27:18.106Z,23.50
2018-09-03T08:29:49.307Z,23.47
2018-09-03T08:32:18.718Z,23.36
2018-09-03T08:34:48.158Z,23.32
2018-09-03T08:37:17.561Z,23.41
2018-09-03T08:39:46.992Z,23.51
2018-09-03T08:42:16.586Z,23.62
2018-09-03T08:44:46.647Z,23.73
2018-09-03T08:47:16.035Z,23.82
2018-09-03T08:49:45.752Z,23.87
2018-09-03T08:52:15.143Z,23.91
2018-09-03T08:54:44.499Z,23.94
2018-09-03T08:57:14.152Z,23.96
2018-09-03T08:59:43.594Z,24.01
2018-09-03T09:02:13.148Z,24.12
2018-09-03T09:04:42.599Z,24.21
2018-09-03T09:07:12.086Z,24.35
2018-09-03T09:09:42.329Z,24.47
2018-09-03T09:12:12.095Z,24.63
2018-09-03T09:14:41.618Z,24.81
2018-09-03T09:17:13.747Z,24.98
2018-09-03T09:19:43.343Z,25.10
2018-09-03T09:22:12.790Z,25.16
2018-09-03T09:24:42.166Z,25.23
2018-09-03T09:27:11.837Z,25.20
2018-09-03T09:29:41.559Z,25.17
2018-09-03T09:32:11.054Z,25.16
2018-09-03T09:34:40.478Z,25.11
2018-09-03T09:37:11.314Z,25.10
2018-09-03T09:39:40.775Z,25.16
2018-09-03T09:42:11.014Z,25.29
2018-09-03T09:44:40.398Z,25.53
2018-09-03T09:47:09.777Z,26.15
2018-09-03T09:49:39.213Z,26.31
2018-09-03T09:52:08.581Z,26.41
2018-09-03T09:54:37.993Z,26.47
2018-09-03T09:57:07.828Z,26.56
2018-09-03T09:59:37.235Z,26.63
2018-09-03T10:02:06.840Z,26.81
2018-09-03T10:04:36.275Z,27.09
2018-09-03T10:07:08.920Z,27.32
2018-09-03T10:09:38.279Z,27.47
2018-09-03T10:12:07.966Z,27.56
2018-09-03T10:14:37.405Z,27.79
2018-09-03T10:17:06.980Z,27.94
2018-09-03T10:19:36.412Z,28.09
2018-09-03T10:22:06.441Z,28.21
2018-09-03T10:24:35.806Z,28.32
2018-09-03T10:27:06.518Z,28.29
2018-09-03T10:29:35.887Z,28.41
2018-09-03T10:32:07.187Z,28.48
2018-09-03T10:34:36.629Z,28.54
2018-09-03T10:37:07.170Z,28.48
2018-09-03T10:39:36.648Z,28.53
2018-09-03T10:42:11.065Z,28.59
2018-09-03T10:44:40.508Z,28.51
2018-09-03T10:47:09.991Z,28.38
2018-09-03T10:49:39.425Z,28.41
2018-09-03T10:52:10.861Z,28.43
2018-09-03T10:54:40.270Z,28.43
2018-09-03T10:57:10.429Z,28.26
2018-09-03T10:59:39.923Z,28.07
2018-09-03T11:02:09.583Z,27.98
2018-09-03T11:04:38.950Z,27.95
2018-09-03T11:07:09.067Z,27.97
2018-09-03T11:09:38.626Z,28.05
2018-09-03T11:12:08.209Z,28.06
2018-09-03T11:14:37.719Z,28.09
2018-09-03T11:17:07.123Z,28.16
2018-09-03T11:19:40.426Z,28.30
2018-09-03T11:22:14.771Z,28.44
2018-09-03T11:24:44.213Z,28.41
2018-09-03T11:27:13.593Z,28.44
2018-09-03T11:29:42.958Z,28.41
2018-09-03T11:32:12.374Z,28.33
2018-09-03T11:34:41.821Z,28.20
2018-09-03T11:37:11.306Z,28.17
2018-09-03T11:39:40.671Z,28.15
2018-09-03T11:42:10.030Z,28.14
2018-09-03T11:44:40.472Z,28.16
2018-09-03T11:47:12.397Z,28.19
2018-09-03T11:49:41.775Z,28.15
2018-09-03T11:52:11.174Z,28.07
2018-09-03T11:54:40.811Z,27.97
2018-09-03T11:57:10.617Z,27.86
2018-09-03T11:59:40.939Z,27.87
2018-09-03T12:02:10.433Z,27.95
2018-09-03T12:04:39.849Z,28.07
2018-09-03T12:07:09.334Z,28.13
2018-09-03T12:09:38.811Z,28.17
2018-09-03T12:12:08.839Z,28.20
2018-09-03T12:14:40.623Z,28.48
2018-09-03T12:17:10.059Z,28.41
2018-09-03T12:19:39.451Z,28.43
2018-09-03T12:22:08.841Z,28.51
2018-09-03T12:24:38.241Z,28.60
2018-09-03T12:27:07.620Z,28.73
2018-09-03T12:29:36.978Z,28.82
2018-09-03T12:32:06.586Z,28.99
2018-09-03T12:34:36.622Z,29.18
2018-09-03T12:37:06.748Z,29.42
2018-09-03T12:39:36.125Z,29.64
2018-09-03T12:42:06.418Z,29.82
2018-09-03T12:44:35.791Z,30.03
2018-09-03T12:47:06.389Z,30.16
2018-09-03T12:49:35.751Z,30.27
2018-09-03T12:52:06.553Z,30.47
2018-09-03T12:54:35.955Z,30.49
2018-09-03T12:57:06.511Z,30.58
2018-09-03T12:59:36.029Z,30.73
2018-09-03T13:02:07.613Z,31.21
2018-09-03T13:04:39.061Z,31.43
2018-09-03T13:07:09.227Z,31.78
2018-09-03T13:09:38.630Z,32.65
2018-09-03T13:12:08.169Z,33.49
2018-09-03T13:14:38.049Z,34.13
2018-09-03T13:17:07.486Z,33.99
2018-09-03T13:19:36.871Z,34.05
2018-09-03T13:22:07.822Z,34.76
2018-09-03T13:24:37.228Z,35.48
2018-09-03T13:27:07.838Z,36.04
2018-09-03T13:29:37.284Z,36.41
2018-09-03T13:32:06.849Z,37.06
2018-09-03T13:34:36.359Z,37.34
2018-09-03T13:37:06.458Z,37.73
2018-09-03T13:39:35.813Z,38.18
2018-09-03T13:42:06.219Z,38.71
2018-09-03T13:44:35.542Z,39.10
2018-09-03T13:47:05.044Z,39.35
2018-09-03T13:49:34.446Z,39.56
2018-09-03T13:52:10.435Z,39.67
2018-09-03T13:54:39.880Z,39.84
2018-09-03T13:57:09.332Z,40.05
2018-09-03T13:59:38.799Z,40.39
2018-09-03T14:02:08.149Z,40.68
2018-09-03T14:04:37.558Z,41.00
2018-09-03T14:07:07.010Z,41.30
2018-09-03T14:09:36.558Z,41.48
2018-09-03T14:12:06.671Z,41.57
2018-09-03T14:14:36.146Z,41.32
2018-09-03T14:17:06.984Z,40.62
2018-09-03T14:19:36.430Z,39.94
2018-09-03T14:22:06.845Z,39.62
2018-09-03T14:24:37.185Z,39.33
2018-09-03T14:27:06.765Z,38.69
2018-09-03T14:29:36.090Z,37.95
2018-09-03T14:32:06.266Z,37.17
2018-09-03T14:34:35.718Z,36.68
2018-09-03T14:37:06.473Z,36.92
2018-09-03T14:39:36.505Z,38.03
2018-09-03T14:42:06.412Z,39.07
2018-09-03T14:44:35.814Z,39.75
2018-09-03T14:47:06.980Z,40.50
2018-09-03T14:49:36.484Z,41.02
2018-09-03T14:52:06.238Z,41.14
2018-09-03T14:54:35.697Z,41.39
2018-09-03T14:57:06.306Z,41.69
2018-09-03T14:59:37.093Z,41.92
2018-09-03T15:02:06.483Z,42.26
2018-09-03T15:04:35.881Z,42.57
2018-09-03T15:07:06.714Z,42.00
2018-09-03T15:09:36.166Z,40.99
2018-09-03T15:12:06.582Z,40.13
2018-09-03T15:14:36.050Z,39.56
2018-09-03T15:17:06.208Z,39.75
2018-09-03T15:19:35.581Z,40.34
2018-09-03T15:22:06.966Z,40.73
2018-09-03T15:24:36.515Z,40.61
2018-09-03T15:27:07.307Z,40.44
2018-09-03T15:29:36.706Z,40.70
2018-09-03T15:32:07.002Z,41.14
2018-09-03T15:34:36.433Z,41.58
2018-09-03T15:37:06.638Z,41.69
2018-09-03T15:39:36.178Z,41.43
2018-09-03T15:42:06.087Z,40.98
2018-09-03T15:44:35.605Z,40.42
2018-09-03T15:47:06.280Z,40.29
2018-09-03T15:49:36.041Z,40.08
2018-09-03T15:52:06.501Z,39.56
2018-09-03T15:54:35.938Z,38.74
2018-09-03T15:57:07.085Z,38.03
2018-09-03T15:59:36.481Z,38.02
2018-09-03T16:02:06.635Z,38.05
2018-09-03T16:04:36.038Z,37.79
2018-09-03T16:07:06.296Z,38.04
2018-09-03T16:09:35.738Z,37.86
2018-09-03T16:12:06.179Z,37.16
2018-09-03T16:14:35.591Z,36.49
2018-09-03T16:17:06.258Z,36.22
2018-09-03T16:19:37.038Z,36.52
2018-09-03T16:22:06.849Z,36.45
2018-09-03T16:24:36.298Z,36.64
2018-09-03T16:27:06.495Z,37.09
2018-09-03T16:29:36.362Z,37.28
2018-09-03T16:32:06.330Z,37.32
2018-09-03T16:34:35.747Z,37.33
2018-09-03T16:37:06.782Z,37.10
2018-09-03T16:39:36.544Z,36.84
2018-09-03T16:42:06.917Z,36.48
2018-09-03T16:44:37.318Z,35.99
2018-09-03T16:47:07.141Z,35.50
2018-09-03T16:49:36.615Z,35.00
2018-09-03T16:52:06.971Z,34.35
2018-09-03T16:54:36.401Z,33.67
2018-09-03T16:57:08.120Z,33.16
2018-09-03T16:59:37.581Z,32.72
2018-09-03T17:02:07.301Z,32.30
2018-09-03T17:04:36.908Z,31.99
2018-09-03T17:07:06.961Z,31.69
2018-09-03T17:09:36.508Z,31.37
2018-09-03T17:12:06.622Z,31.08
2018-09-03T17:14:36.160Z,30.82
2018-09-03T17:17:07.004Z,30.63
2018-09-03T17:19:36.486Z,30.44
2018-09-03T17:22:06.282Z,30.38
2018-09-03T17:24:36.064Z,30.26
2018-09-03T17:27:07.224Z,30.02
2018-09-03T17:29:36.697Z,29.76
2018-09-03T17:32:07.767Z,29.56
2018-09-03T17:34:37.217Z,29.38
2018-09-03T17:37:06.717Z,29.19
2018-09-03T17:39:36.276Z,29.05
2018-09-03T17:42:06.207Z,28.87
2018-09-03T17:44:35.665Z,28.71
2018-09-03T17:47:05.604Z,28.56
2018-09-03T17:49:35.257Z,28.43
2018-09-03T17:52:04.618Z,28.33
2018-09-03T17:54:34.055Z,28.24
2018-09-03T17:57:03.722Z,28.13
2018-09-03T17:59:33.950Z,28.00
2018-09-03T18:02:03.446Z,27.83
2018-09-03T18:04:32.853Z,27.70
2018-09-03T18:07:03.191Z,27.58
2018-09-03T18:09:32.621Z,27.64
2018-09-03T18:12:02.079Z,27.51
2018-09-03T18:14:31.465Z,27.51
2018-09-03T18:17:00.887Z,27.29
2018-09-03T18:19:30.331Z,27.11
2018-09-03T18:21:59.842Z,26.92
2018-09-03T18:24:29.302Z,26.83
2018-09-03T18:26:58.818Z,26.73
2018-09-03T18:29:30.328Z,26.64
2018-09-03T18:32:00.165Z,26.57
2018-09-03T18:34:30.289Z,26.50
2018-09-03T18:36:59.773Z,26.45
2018-09-03T18:39:29.211Z,26.36
2018-09-03T18:41:58.662Z,26.27
2018-09-03T18:44:29.141Z,26.17
2018-09-03T18:46:58.534Z,26.08
2018-09-03T18:49:27.974Z,25.98
2018-09-03T18:51:58.547Z,25.89
2018-09-03T18:54:27.963Z,25.80
2018-09-03T18:56:58.228Z,25.71
2018-09-03T18:59:27.705Z,25.64
2018-09-03T19:01:57.087Z,25.56
2018-09-03T19:04:26.484Z,25.51
2018-09-03T19:06:55.907Z,25.41
2018-09-03T19:09:25.294Z,25.29
2018-09-03T19:11:54.781Z,25.18
2018-09-03T19:14:24.311Z,25.10
2018-09-03T19:16:54.335Z,25.05
2018-09-03T19:19:24.018Z,24.98
2018-09-03T19:21:53.425Z,24.92
2018-09-03T19:24:22.833Z,24.86
2018-09-03T19:26:52.378Z,24.80
2018-09-03T19:29:25.042Z,24.74
2018-09-03T19:31:54.430Z,24.65
2018-09-03T19:34:23.953Z,24.59
2018-09-03T19:36:53.571Z,24.53
2018-09-03T19:39:22.989Z,24.48
2018-09-03T19:41:52.513Z,24.44
2018-09-03T19:44:21.989Z,24.42
2018-09-03T19:46:51.506Z,24.39
2018-09-03T19:49:20.989Z,24.36
2018-09-03T19:51:50.455Z,24.33
2018-09-03T19:54:20.116Z,24.30
2018-09-03T19:56:49.709Z,24.28
2018-09-03T19:59:19.122Z,24.28
2018-09-03T20:01:48.559Z,24.27
2018-09-03T20:04:18.497Z,24.23
2018-09-03T20:06:48.854Z,24.19
2018-09-03T20:09:18.485Z,24.14
2018-09-03T20:11:47.866Z,24.11
2018-09-03T20:14:18.179Z,24.08
2018-09-03T20:16:47.598Z,24.06
2018-09-03T20:19:17.046Z,24.02
2018-09-03T20:21:46.415Z,23.98
2018-09-03T20:24:16.581Z,23.94
2018-09-03T20:26:46.069Z,23.86
2018-09-03T20:29:16.156Z,23.84
2018-09-03T20:31:45.627Z,23.79
2018-09-03T20:34:15.997Z,23.76
2018-09-03T20:36:45.600Z,23.71
2018-09-03T20:39:15.854Z,23.67
2018-09-03T20:41:45.279Z,23.64
2018-09-03T20:44:17.084Z,23.59
2018-09-03T20:46:46.547Z,23.53
2018-09-03T20:49:16.042Z,23.46
2018-09-03T20:51:45.769Z,23.43
2018-09-03T20:54:15.662Z,23.41
2018-09-03T20:56:45.629Z,23.39
2018-09-03T20:59:15.935Z,23.40
2018-09-03T21:01:45.473Z,23.38
2018-09-03T21:04:15.005Z,23.36
2018-09-03T21:06:45.264Z,23.33
2018-09-03T21:09:14.654Z,23.28
2018-09-03T21:11:44.166Z,23.24
2018-09-03T21:14:13.651Z,23.19
2018-09-03T21:16:43.076Z,23.14
2018-09-03T21:19:13.119Z,23.09
2018-09-03T21:21:43.488Z,23.03
2018-09-03T21:24:12.798Z,23.00
2018-09-03T21:26:42.267Z,22.97
2018-09-03T21:29:11.704Z,22.95
2018-09-03T21:31:44.316Z,22.91
2018-09-03T21:34:14.364Z,22.88
2018-09-03T21:36:44.040Z,22.83
2018-09-03T21:39:13.674Z,22.79
2018-09-03T21:41:43.318Z,22.77
2018-09-03T21:44:13.226Z,22.72
2018-09-03T21:46:43.745Z,22.69
2018-09-03T21:49:14.170Z,22.67
2018-09-03T21:51:43.546Z,22.68
2018-09-03T21:54:13.092Z,22.65
2018-09-03T21:56:42.450Z,22.65
2018-09-03T21:59:12.003Z,22.63
2018-09-03T22:01:41.847Z,22.63
2018-09-03T22:04:11.177Z,22.60
2018-09-03T22:06:40.721Z,22.59
2018-09-03T22:09:10.720Z,22.57
2018-09-03T22:11:40.111Z,22.55
2018-09-03T22:14:09.426Z,22.50
2018-09-03T22:16:40.103Z,22.47
2018-09-03T22:19:09.982Z,22.42
2018-09-03T22:21:39.386Z,22.37
2018-09-03T22:24:08.786Z,22.30
2018-09-03T22:26:38.199Z,22.25
2018-09-03T22:29:07.846Z,22.22
2018-09-03T22:31:37.239Z,22.17
2018-09-03T22:34:06.685Z,22.12
2018-09-03T22:36:36.017Z,22.06
2018-09-03T22:39:07.231Z,22.03
2018-09-03T22:41:36.744Z,21.97
2018-09-03T22:44:06.729Z,21.92
2018-09-03T22:46:36.117Z,21.86
2018-09-03T22:49:06.471Z,21.83
2018-09-03T22:51:35.820Z,21.77
2018-09-03T22:54:06.144Z,21.72
2018-09-03T22:56:35.540Z,21.78
2018-09-03T22:59:06.157Z,21.71
2018-09-03T23:01:35.517Z,21.64
2018-09-03T23:04:05.106Z,21.59
2018-09-03T23:06:34.507Z,21.54
2018-09-03T23:09:05.188Z,21.48
2018-09-03T23:11:34.615Z,21.44
2018-09-03T23:14:04.173Z,21.38
2018-09-03T23:16:33.561Z,21.33
2018-09-03T23:19:03.507Z,21.29
2018-09-03T23:21:32.864Z,21.24
2018-09-03T23:24:09.755Z,21.19
2018-09-03T23:26:47.357Z,21.14
2018-09-03T23:29:23.738Z,21.11
2018-09-03T23:32:01.542Z,21.06
2018-09-03T23:34:39.496Z,21.01
2018-09-03T23:37:21.301Z,20.98
2018-09-03T23:39:59.074Z,20.93
2018-09-03T23:42:39.965Z,20.89
2018-09-03T23:45:17.632Z,20.85
2018-09-03T23:47:57.901Z,20.81
2018-09-03T23:50:38.465Z,20.77
2018-09-03T23:53:18.908Z,20.73
2018-09-03T23:55:56.209Z,20.69
2018-09-03T23:58:32.278Z,20.64
